sensor_id;sensor_type;location;lat;lon;timestamp;P1;durP1;ratioP1;P2;durP2;ratioP2
20144;SDS011;10233;50.814;6.590;2023-05-07T00:00:39;5.90;;;2.60;;
20144;SDS011;10233;50.814;6.590;2023-05-07T00:01:41;3.03;;;2.42;;
20144;SDS011;10233;50.814;6.590;2023-05-07T00:02:41;2.70;;;2.38;;
20144;SDS011;10233;50.814;6.590;2023-05-07T00:03:42;4.35;;;2.50;;
20144;SDS011;10233;50.814;6.590;2023-05-07T00:04:43;3.97;;;2.47;;
20144;SDS011;10233;50.814;6.590;2023-05-07T00:05:44;3.00;;;2.20;;
20144;SDS011;10233;50.814;6.590;2023-05-07T00:06:45;3.60;;;2.28;;
20144;SDS011;10233;50.814;6.590;2023-05-07T00:07:46;3.35;;;2.40;;
20144;SDS011;10233;50.814;6.590;2023-05-07T00:08:47;4.15;;;2.30;;
20144;SDS011;10233;50.814;6.590;2023-05-07T00:09:47;3.60;;;2.42;;
20144;SDS011;10233;50.814;6.590;2023-05-07T00:10:48;4.87;;;2.40;;
20144;SDS011;10233;50.814;6.590;2023-05-07T00:11:48;3.20;;;2.10;;
20144;SDS011;10233;50.814;6.590;2023-05-07T00:12:49;2.80;;;2.40;;
20144;SDS011;10233;50.814;6.590;2023-05-07T00:13:50;2.70;;;2.40;;
20144;SDS011;10233;50.814;6.590;2023-05-07T00:14:50;2.90;;;2.40;;
20144;SDS011;10233;50.814;6.590;2023-05-07T00:15:51;3.05;;;2.60;;
20144;SDS011;10233;50.814;6.590;2023-05-07T00:16:51;4.53;;;2.47;;
20144;SDS011;10233;50.814;6.590;2023-05-07T00:17:52;3.22;;;2.20;;
20144;SDS011;10233;50.814;6.590;2023-05-07T00:18:53;2.70;;;2.30;;
20144;SDS011;10233;50.814;6.590;2023-05-07T00:19:54;3.60;;;2.55;;
20144;SDS011;10233;50.814;6.590;2023-05-07T00:20:55;3.77;;;2.43;;
20144;SDS011;10233;50.814;6.590;2023-05-07T00:21:56;3.22;;;2.50;;
20144;SDS011;10233;50.814;6.590;2023-05-07T00:22:57;2.33;;;2.03;;
20144;SDS011;10233;50.814;6.590;2023-05-07T00:23:57;4.28;;;2.30;;
20144;SDS011;10233;50.814;6.590;2023-05-07T00:24:58;4.07;;;2.58;;
20144;SDS011;10233;50.814;6.590;2023-05-07T00:25:59;3.83;;;2.40;;
20144;SDS011;10233;50.814;6.590;2023-05-07T00:27:00;4.15;;;2.47;;
20144;SDS011;10233;50.814;6.590;2023-05-07T00:28:00;4.38;;;2.22;;
20144;SDS011;10233;50.814;6.590;2023-05-07T00:29:03;4.53;;;2.28;;
20144;SDS011;10233;50.814;6.590;2023-05-07T00:30:04;3.27;;;2.30;;
20144;SDS011;10233;50.814;6.590;2023-05-07T00:31:06;2.90;;;2.30;;
20144;SDS011;10233;50.814;6.590;2023-05-07T00:32:07;3.60;;;2.40;;
20144;SDS011;10233;50.814;6.590;2023-05-07T00:33:08;3.65;;;2.28;;
20144;SDS011;10233;50.814;6.590;2023-05-07T00:34:09;3.13;;;2.20;;
20144;SDS011;10233;50.814;6.590;2023-05-07T00:35:09;3.03;;;2.20;;
20144;SDS011;10233;50.814;6.590;2023-05-07T00:36:10;3.85;;;2.35;;
20144;SDS011;10233;50.814;6.590;2023-05-07T00:37:10;2.80;;;2.50;;
20144;SDS011;10233;50.814;6.590;2023-05-07T00:38:12;4.70;;;2.30;;
20144;SDS011;10233;50.814;6.590;2023-05-07T00:39:12;2.97;;;2.30;;
20144;SDS011;10233;50.814;6.590;2023-05-07T00:40:13;3.77;;;2.27;;
20144;SDS011;10233;50.814;6.590;2023-05-07T00:41:15;6.63;;;2.10;;
20144;SDS011;10233;50.814;6.590;2023-05-07T00:42:15;5.05;;;2.33;;
20144;SDS011;10233;50.814;6.590;2023-05-07T00:43:16;2.60;;;2.30;;
20144;SDS011;10233;50.814;6.590;2023-05-07T00:44:17;3.33;;;2.10;;
20144;SDS011;10233;50.814;6.590;2023-05-07T00:45:18;3.23;;;2.27;;
20144;SDS011;10233;50.814;6.590;2023-05-07T00:46:20;2.38;;;1.95;;
20144;SDS011;10233;50.814;6.590;2023-05-07T00:47:21;2.72;;;2.00;;
20144;SDS011;10233;50.814;6.590;2023-05-07T00:48:22;3.45;;;2.20;;
20144;SDS011;10233;50.814;6.590;2023-05-07T00:49:26;3.25;;;2.08;;
20144;SDS011;10233;50.814;6.590;2023-05-07T00:50:55;3.05;;;1.98;;
20144;SDS011;10233;50.814;6.590;2023-05-07T00:51:57;3.03;;;2.22;;
20144;SDS011;10233;50.814;6.590;2023-05-07T00:52:58;2.80;;;2.10;;
20144;SDS011;10233;50.814;6.590;2023-05-07T00:54:00;2.78;;;2.10;;
20144;SDS011;10233;50.814;6.590;2023-05-07T00:55:04;3.78;;;2.13;;
20144;SDS011;10233;50.814;6.590;2023-05-07T00:56:06;2.50;;;2.08;;
20144;SDS011;10233;50.814;6.590;2023-05-07T00:57:07;4.30;;;2.53;;
20144;SDS011;10233;50.814;6.590;2023-05-07T00:58:09;3.45;;;2.00;;
20144;SDS011;10233;50.814;6.590;2023-05-07T00:59:10;4.10;;;2.28;;
20144;SDS011;10233;50.814;6.590;2023-05-07T01:00:11;3.80;;;2.08;;
20144;SDS011;10233;50.814;6.590;2023-05-07T01:01:12;2.47;;;2.15;;
20144;SDS011;10233;50.814;6.590;2023-05-07T01:02:13;4.73;;;2.30;;
20144;SDS011;10233;50.814;6.590;2023-05-07T01:03:13;3.45;;;2.20;;
20144;SDS011;10233;50.814;6.590;2023-05-07T01:04:14;2.97;;;2.20;;
20144;SDS011;10233;50.814;6.590;2023-05-07T01:05:15;3.20;;;2.20;;
20144;SDS011;10233;50.814;6.590;2023-05-07T01:06:18;2.60;;;1.95;;
20144;SDS011;10233;50.814;6.590;2023-05-07T01:07:19;3.80;;;2.10;;
20144;SDS011;10233;50.814;6.590;2023-05-07T01:08:20;3.73;;;2.30;;
20144;SDS011;10233;50.814;6.590;2023-05-07T01:09:23;3.67;;;2.30;;
20144;SDS011;10233;50.814;6.590;2023-05-07T01:10:25;3.90;;;2.60;;
20144;SDS011;10233;50.814;6.590;2023-05-07T01:11:27;3.45;;;2.50;;
20144;SDS011;10233;50.814;6.590;2023-05-07T01:12:28;3.42;;;2.00;;
20144;SDS011;10233;50.814;6.590;2023-05-07T01:13:29;3.20;;;2.20;;
20144;SDS011;10233;50.814;6.590;2023-05-07T01:14:30;2.73;;;1.97;;
20144;SDS011;10233;50.814;6.590;2023-05-07T01:15:33;3.30;;;2.00;;
20144;SDS011;10233;50.814;6.590;2023-05-07T01:16:33;3.40;;;2.10;;
20144;SDS011;10233;50.814;6.590;2023-05-07T01:17:38;3.47;;;2.20;;
20144;SDS011;10233;50.814;6.590;2023-05-07T01:18:45;2.90;;;2.10;;
20144;SDS011;10233;50.814;6.590;2023-05-07T01:19:48;2.88;;;2.10;;
20144;SDS011;10233;50.814;6.590;2023-05-07T01:20:49;3.92;;;2.25;;
20144;SDS011;10233;50.814;6.590;2023-05-07T01:21:50;3.17;;;2.10;;
20144;SDS011;10233;50.814;6.590;2023-05-07T01:22:55;4.25;;;2.25;;
20144;SDS011;10233;50.814;6.590;2023-05-07T01:23:57;2.50;;;2.03;;
20144;SDS011;10233;50.814;6.590;2023-05-07T01:24:58;4.35;;;2.15;;
20144;SDS011;10233;50.814;6.590;2023-05-07T01:26:01;3.65;;;2.20;;
20144;SDS011;10233;50.814;6.590;2023-05-07T01:27:04;2.70;;;2.05;;
20144;SDS011;10233;50.814;6.590;2023-05-07T01:28:07;3.10;;;2.20;;
20144;SDS011;10233;50.814;6.590;2023-05-07T01:29:10;3.37;;;2.10;;
20144;SDS011;10233;50.814;6.590;2023-05-07T01:30:12;2.70;;;1.90;;
20144;SDS011;10233;50.814;6.590;2023-05-07T01:31:13;3.92;;;2.10;;
20144;SDS011;10233;50.814;6.590;2023-05-07T01:32:14;3.05;;;2.28;;
20144;SDS011;10233;50.814;6.590;2023-05-07T01:33:20;2.58;;;2.33;;
20144;SDS011;10233;50.814;6.590;2023-05-07T01:34:22;4.13;;;2.10;;
20144;SDS011;10233;50.814;6.590;2023-05-07T01:35:29;3.22;;;2.08;;
20144;SDS011;10233;50.814;6.590;2023-05-07T01:36:34;2.95;;;2.15;;
20144;SDS011;10233;50.814;6.590;2023-05-07T01:37:37;4.13;;;2.10;;
20144;SDS011;10233;50.814;6.590;2023-05-07T01:38:39;3.05;;;1.85;;
20144;SDS011;10233;50.814;6.590;2023-05-07T01:39:42;3.10;;;2.40;;
20144;SDS011;10233;50.814;6.590;2023-05-07T01:40:43;3.20;;;2.20;;
20144;SDS011;10233;50.814;6.590;2023-05-07T01:41:44;2.88;;;1.90;;
20144;SDS011;10233;50.814;6.590;2023-05-07T01:42:45;4.10;;;2.00;;
20144;SDS011;10233;50.814;6.590;2023-05-07T01:43:49;3.25;;;1.95;;
20144;SDS011;10233;50.814;6.590;2023-05-07T01:44:51;2.60;;;2.03;;
20144;SDS011;10233;50.814;6.590;2023-05-07T01:45:52;2.33;;;1.90;;
20144;SDS011;10233;50.814;6.590;2023-05-07T01:46:53;2.63;;;1.80;;
20144;SDS011;10233;50.814;6.590;2023-05-07T01:47:55;2.05;;;1.77;;
20144;SDS011;10233;50.814;6.590;2023-05-07T01:48:56;3.40;;;2.10;;
20144;SDS011;10233;50.814;6.590;2023-05-07T01:49:57;5.18;;;1.95;;
20144;SDS011;10233;50.814;6.590;2023-05-07T01:50:58;2.35;;;1.90;;
20144;SDS011;10233;50.814;6.590;2023-05-07T01:51:59;2.13;;;1.92;;
20144;SDS011;10233;50.814;6.590;2023-05-07T01:53:01;3.65;;;2.03;;
20144;SDS011;10233;50.814;6.590;2023-05-07T01:54:02;3.22;;;2.10;;
20144;SDS011;10233;50.814;6.590;2023-05-07T01:55:04;4.47;;;2.30;;
20144;SDS011;10233;50.814;6.590;2023-05-07T01:56:05;3.38;;;1.85;;
20144;SDS011;10233;50.814;6.590;2023-05-07T01:57:08;4.43;;;1.90;;
20144;SDS011;10233;50.814;6.590;2023-05-07T01:58:09;2.37;;;2.13;;
20144;SDS011;10233;50.814;6.590;2023-05-07T01:59:09;3.35;;;2.10;;
20144;SDS011;10233;50.814;6.590;2023-05-07T02:00:10;3.92;;;2.40;;
20144;SDS011;10233;50.814;6.590;2023-05-07T02:01:18;3.10;;;2.20;;
20144;SDS011;10233;50.814;6.590;2023-05-07T02:02:19;3.20;;;2.30;;
20144;SDS011;10233;50.814;6.590;2023-05-07T02:03:20;3.20;;;2.25;;
20144;SDS011;10233;50.814;6.590;2023-05-07T02:04:31;4.57;;;2.50;;
20144;SDS011;10233;50.814;6.590;2023-05-07T02:05:31;3.78;;;2.50;;
20144;SDS011;10233;50.814;6.590;2023-05-07T02:06:37;3.92;;;2.28;;
20144;SDS011;10233;50.814;6.590;2023-05-07T02:07:39;3.10;;;2.67;;
20144;SDS011;10233;50.814;6.590;2023-05-07T02:08:40;2.57;;;2.33;;
20144;SDS011;10233;50.814;6.590;2023-05-07T02:09:41;3.25;;;2.78;;
20144;SDS011;10233;50.814;6.590;2023-05-07T02:10:42;3.42;;;3.13;;
20144;SDS011;10233;50.814;6.590;2023-05-07T02:11:44;4.07;;;2.75;;
20144;SDS011;10233;50.814;6.590;2023-05-07T02:12:44;3.87;;;2.80;;
20144;SDS011;10233;50.814;6.590;2023-05-07T02:13:45;3.33;;;2.67;;
20144;SDS011;10233;50.814;6.590;2023-05-07T02:14:46;6.10;;;3.00;;
20144;SDS011;10233;50.814;6.590;2023-05-07T02:15:46;4.00;;;3.00;;
20144;SDS011;10233;50.814;6.590;2023-05-07T02:16:50;4.20;;;3.33;;
20144;SDS011;10233;50.814;6.590;2023-05-07T02:19:08;4.38;;;2.80;;
20144;SDS011;10233;50.814;6.590;2023-05-07T02:20:08;4.37;;;3.23;;
20144;SDS011;10233;50.814;6.590;2023-05-07T02:21:15;3.75;;;3.33;;
20144;SDS011;10233;50.814;6.590;2023-05-07T02:22:15;5.78;;;3.65;;
20144;SDS011;10233;50.814;6.590;2023-05-07T02:23:16;4.37;;;3.23;;
20144;SDS011;10233;50.814;6.590;2023-05-07T02:24:17;6.75;;;3.63;;
20144;SDS011;10233;50.814;6.590;2023-05-07T02:25:17;3.75;;;3.25;;
20144;SDS011;10233;50.814;6.590;2023-05-07T02:26:18;4.77;;;3.43;;
20144;SDS011;10233;50.814;6.590;2023-05-07T02:27:19;3.80;;;3.40;;
20144;SDS011;10233;50.814;6.590;2023-05-07T02:28:19;5.15;;;3.40;;
20144;SDS011;10233;50.814;6.590;2023-05-07T02:29:39;5.15;;;3.15;;
20144;SDS011;10233;50.814;6.590;2023-05-07T02:30:41;4.70;;;3.05;;
20144;SDS011;10233;50.814;6.590;2023-05-07T02:31:41;4.40;;;3.40;;
20144;SDS011;10233;50.814;6.590;2023-05-07T02:32:42;4.63;;;3.40;;
20144;SDS011;10233;50.814;6.590;2023-05-07T02:33:43;4.95;;;3.70;;
20144;SDS011;10233;50.814;6.590;2023-05-07T02:34:43;5.63;;;3.77;;
20144;SDS011;10233;50.814;6.590;2023-05-07T02:35:44;3.92;;;3.30;;
20144;SDS011;10233;50.814;6.590;2023-05-07T02:36:47;4.13;;;3.22;;
20144;SDS011;10233;50.814;6.590;2023-05-07T02:37:50;4.45;;;3.03;;
20144;SDS011;10233;50.814;6.590;2023-05-07T02:38:51;4.97;;;3.17;;
20144;SDS011;10233;50.814;6.590;2023-05-07T02:39:52;4.72;;;3.22;;
20144;SDS011;10233;50.814;6.590;2023-05-07T02:40:53;5.68;;;3.20;;
20144;SDS011;10233;50.814;6.590;2023-05-07T02:41:53;4.90;;;3.60;;
20144;SDS011;10233;50.814;6.590;2023-05-07T02:42:54;5.88;;;3.50;;
20144;SDS011;10233;50.814;6.590;2023-05-07T02:43:55;4.53;;;3.50;;
20144;SDS011;10233;50.814;6.590;2023-05-07T02:44:56;7.07;;;4.03;;
20144;SDS011;10233;50.814;6.590;2023-05-07T02:46:03;3.70;;;3.30;;
20144;SDS011;10233;50.814;6.590;2023-05-07T02:47:10;4.38;;;3.10;;
20144;SDS011;10233;50.814;6.590;2023-05-07T02:48:13;7.10;;;3.83;;
20144;SDS011;10233;50.814;6.590;2023-05-07T02:49:14;6.27;;;3.50;;
20144;SDS011;10233;50.814;6.590;2023-05-07T02:50:15;4.53;;;3.25;;
20144;SDS011;10233;50.814;6.590;2023-05-07T02:51:17;4.63;;;3.30;;
20144;SDS011;10233;50.814;6.590;2023-05-07T02:52:20;4.45;;;3.47;;
20144;SDS011;10233;50.814;6.590;2023-05-07T02:53:20;6.20;;;3.40;;
20144;SDS011;10233;50.814;6.590;2023-05-07T02:54:21;6.07;;;3.47;;
20144;SDS011;10233;50.814;6.590;2023-05-07T02:55:22;3.90;;;3.45;;
20144;SDS011;10233;50.814;6.590;2023-05-07T02:56:22;5.27;;;3.63;;
20144;SDS011;10233;50.814;6.590;2023-05-07T02:57:27;6.55;;;3.38;;
20144;SDS011;10233;50.814;6.590;2023-05-07T02:58:27;5.30;;;3.43;;
20144;SDS011;10233;50.814;6.590;2023-05-07T02:59:28;4.50;;;3.35;;
20144;SDS011;10233;50.814;6.590;2023-05-07T03:00:30;4.90;;;3.15;;
20144;SDS011;10233;50.814;6.590;2023-05-07T03:01:46;4.78;;;3.45;;
20144;SDS011;10233;50.814;6.590;2023-05-07T03:02:47;4.45;;;3.13;;
20144;SDS011;10233;50.814;6.590;2023-05-07T03:03:48;4.57;;;3.37;;
20144;SDS011;10233;50.814;6.590;2023-05-07T03:04:48;4.70;;;3.37;;
20144;SDS011;10233;50.814;6.590;2023-05-07T03:05:49;4.38;;;3.30;;
20144;SDS011;10233;50.814;6.590;2023-05-07T03:06:49;5.27;;;2.97;;
20144;SDS011;10233;50.814;6.590;2023-05-07T03:07:50;5.95;;;3.40;;
20144;SDS011;10233;50.814;6.590;2023-05-07T03:08:51;3.43;;;2.90;;
20144;SDS011;10233;50.814;6.590;2023-05-07T03:09:51;3.88;;;2.95;;
20144;SDS011;10233;50.814;6.590;2023-05-07T03:10:52;3.47;;;2.87;;
20144;SDS011;10233;50.814;6.590;2023-05-07T03:11:53;5.03;;;3.00;;
20144;SDS011;10233;50.814;6.590;2023-05-07T03:12:53;3.70;;;3.00;;
20144;SDS011;10233;50.814;6.590;2023-05-07T03:13:54;4.40;;;2.97;;
20144;SDS011;10233;50.814;6.590;2023-05-07T03:14:56;3.83;;;3.08;;
20144;SDS011;10233;50.814;6.590;2023-05-07T03:15:56;5.32;;;3.00;;
20144;SDS011;10233;50.814;6.590;2023-05-07T03:16:57;3.43;;;3.07;;
20144;SDS011;10233;50.814;6.590;2023-05-07T03:17:58;3.55;;;3.00;;
20144;SDS011;10233;50.814;6.590;2023-05-07T03:19:00;4.00;;;3.03;;
20144;SDS011;10233;50.814;6.590;2023-05-07T03:20:01;3.88;;;2.80;;
20144;SDS011;10233;50.814;6.590;2023-05-07T03:21:02;3.00;;;2.67;;
20144;SDS011;10233;50.814;6.590;2023-05-07T03:22:03;5.07;;;3.00;;
20144;SDS011;10233;50.814;6.590;2023-05-07T03:23:03;5.53;;;3.00;;
20144;SDS011;10233;50.814;6.590;2023-05-07T03:24:04;3.60;;;2.70;;
20144;SDS011;10233;50.814;6.590;2023-05-07T03:25:06;4.28;;;2.75;;
20144;SDS011;10233;50.814;6.590;2023-05-07T03:26:07;5.03;;;2.90;;
20144;SDS011;10233;50.814;6.590;2023-05-07T03:27:07;3.00;;;2.70;;
20144;SDS011;10233;50.814;6.590;2023-05-07T03:28:08;5.90;;;3.10;;
20144;SDS011;10233;50.814;6.590;2023-05-07T03:29:15;3.67;;;2.60;;
20144;SDS011;10233;50.814;6.590;2023-05-07T03:30:15;3.60;;;2.63;;
20144;SDS011;10233;50.814;6.590;2023-05-07T03:31:16;4.57;;;2.67;;
20144;SDS011;10233;50.814;6.590;2023-05-07T03:32:17;2.67;;;2.45;;
20144;SDS011;10233;50.814;6.590;2023-05-07T03:33:18;4.10;;;2.85;;
20144;SDS011;10233;50.814;6.590;2023-05-07T03:34:19;3.93;;;2.90;;
20144;SDS011;10233;50.814;6.590;2023-05-07T03:35:22;5.82;;;3.00;;
20144;SDS011;10233;50.814;6.590;2023-05-07T03:36:23;4.88;;;3.00;;
20144;SDS011;10233;50.814;6.590;2023-05-07T03:37:26;4.18;;;2.78;;
20144;SDS011;10233;50.814;6.590;2023-05-07T03:38:27;4.00;;;2.80;;
20144;SDS011;10233;50.814;6.590;2023-05-07T03:39:28;2.92;;;2.63;;
20144;SDS011;10233;50.814;6.590;2023-05-07T03:40:29;4.50;;;2.47;;
20144;SDS011;10233;50.814;6.590;2023-05-07T03:41:29;4.72;;;2.88;;
20144;SDS011;10233;50.814;6.590;2023-05-07T03:42:30;3.63;;;2.90;;
20144;SDS011;10233;50.814;6.590;2023-05-07T03:43:31;4.40;;;2.60;;
20144;SDS011;10233;50.814;6.590;2023-05-07T03:44:38;4.22;;;3.10;;
20144;SDS011;10233;50.814;6.590;2023-05-07T03:45:38;3.73;;;2.90;;
20144;SDS011;10233;50.814;6.590;2023-05-07T03:46:44;5.40;;;3.55;;
20144;SDS011;10233;50.814;6.590;2023-05-07T03:47:46;3.40;;;2.90;;
20144;SDS011;10233;50.814;6.590;2023-05-07T03:48:50;3.45;;;3.03;;
20144;SDS011;10233;50.814;6.590;2023-05-07T03:49:53;4.38;;;2.80;;
20144;SDS011;10233;50.814;6.590;2023-05-07T03:50:57;3.78;;;3.20;;
20144;SDS011;10233;50.814;6.590;2023-05-07T03:51:59;3.92;;;2.80;;
20144;SDS011;10233;50.814;6.590;2023-05-07T03:53:00;4.88;;;2.97;;
20144;SDS011;10233;50.814;6.590;2023-05-07T03:54:04;4.10;;;2.70;;
20144;SDS011;10233;50.814;6.590;2023-05-07T03:55:06;3.67;;;2.90;;
20144;SDS011;10233;50.814;6.590;2023-05-07T03:56:08;3.90;;;2.97;;
20144;SDS011;10233;50.814;6.590;2023-05-07T03:57:12;4.13;;;3.10;;
20144;SDS011;10233;50.814;6.590;2023-05-07T03:58:13;3.27;;;2.87;;
20144;SDS011;10233;50.814;6.590;2023-05-07T03:59:13;4.07;;;3.00;;
20144;SDS011;10233;50.814;6.590;2023-05-07T04:00:16;4.68;;;2.90;;
20144;SDS011;10233;50.814;6.590;2023-05-07T04:01:23;3.85;;;3.20;;
20144;SDS011;10233;50.814;6.590;2023-05-07T04:02:24;3.55;;;3.05;;
20144;SDS011;10233;50.814;6.590;2023-05-07T04:03:25;3.30;;;3.00;;
20144;SDS011;10233;50.814;6.590;2023-05-07T04:04:26;5.10;;;2.97;;
20144;SDS011;10233;50.814;6.590;2023-05-07T04:05:26;4.15;;;3.00;;
20144;SDS011;10233;50.814;6.590;2023-05-07T04:06:32;3.88;;;3.08;;
20144;SDS011;10233;50.814;6.590;2023-05-07T04:07:32;3.42;;;2.97;;
20144;SDS011;10233;50.814;6.590;2023-05-07T04:08:33;3.90;;;3.00;;
20144;SDS011;10233;50.814;6.590;2023-05-07T04:09:34;4.43;;;2.80;;
20144;SDS011;10233;50.814;6.590;2023-05-07T04:10:34;4.57;;;3.30;;
20144;SDS011;10233;50.814;6.590;2023-05-07T04:11:39;5.20;;;2.90;;
20144;SDS011;10233;50.814;6.590;2023-05-07T04:12:42;3.47;;;3.10;;
20144;SDS011;10233;50.814;6.590;2023-05-07T04:13:45;3.75;;;3.00;;
20144;SDS011;10233;50.814;6.590;2023-05-07T04:14:46;3.03;;;2.72;;
20144;SDS011;10233;50.814;6.590;2023-05-07T04:15:47;2.67;;;2.47;;
20144;SDS011;10233;50.814;6.590;2023-05-07T04:16:51;3.38;;;2.50;;
20144;SDS011;10233;50.814;6.590;2023-05-07T04:17:51;3.40;;;2.60;;
20144;SDS011;10233;50.814;6.590;2023-05-07T04:18:54;3.30;;;2.40;;
20144;SDS011;10233;50.814;6.590;2023-05-07T04:19:55;4.38;;;2.50;;
20144;SDS011;10233;50.814;6.590;2023-05-07T04:20:56;3.20;;;2.80;;
20144;SDS011;10233;50.814;6.590;2023-05-07T04:21:56;4.30;;;2.80;;
20144;SDS011;10233;50.814;6.590;2023-05-07T04:22:57;3.53;;;2.70;;
20144;SDS011;10233;50.814;6.590;2023-05-07T04:23:58;3.00;;;2.60;;
20144;SDS011;10233;50.814;6.590;2023-05-07T04:24:59;4.50;;;2.83;;
20144;SDS011;10233;50.814;6.590;2023-05-07T04:26:01;3.95;;;2.63;;
20144;SDS011;10233;50.814;6.590;2023-05-07T04:27:12;4.75;;;2.60;;
20144;SDS011;10233;50.814;6.590;2023-05-07T04:28:13;3.00;;;2.63;;
20144;SDS011;10233;50.814;6.590;2023-05-07T04:29:14;5.00;;;2.67;;
20144;SDS011;10233;50.814;6.590;2023-05-07T04:30:15;2.88;;;2.60;;
20144;SDS011;10233;50.814;6.590;2023-05-07T04:31:16;3.07;;;2.53;;
20144;SDS011;10233;50.814;6.590;2023-05-07T04:32:18;2.92;;;2.47;;
20144;SDS011;10233;50.814;6.590;2023-05-07T04:33:18;4.27;;;2.63;;
20144;SDS011;10233;50.814;6.590;2023-05-07T04:34:21;2.78;;;2.30;;
20144;SDS011;10233;50.814;6.590;2023-05-07T04:35:22;2.90;;;2.40;;
20144;SDS011;10233;50.814;6.590;2023-05-07T04:36:23;4.80;;;2.60;;
20144;SDS011;10233;50.814;6.590;2023-05-07T04:37:32;2.50;;;2.30;;
20144;SDS011;10233;50.814;6.590;2023-05-07T04:38:34;4.10;;;2.60;;
20144;SDS011;10233;50.814;6.590;2023-05-07T04:39:36;9.13;;;4.97;;
20144;SDS011;10233;50.814;6.590;2023-05-07T04:40:38;5.97;;;3.13;;
20144;SDS011;10233;50.814;6.590;2023-05-07T04:41:40;3.65;;;2.60;;
20144;SDS011;10233;50.814;6.590;2023-05-07T04:42:41;3.35;;;2.70;;
20144;SDS011;10233;50.814;6.590;2023-05-07T04:43:42;4.57;;;2.55;;
20144;SDS011;10233;50.814;6.590;2023-05-07T04:44:45;4.75;;;2.60;;
20144;SDS011;10233;50.814;6.590;2023-05-07T04:45:46;4.78;;;2.78;;
20144;SDS011;10233;50.814;6.590;2023-05-07T04:46:46;3.80;;;2.58;;
20144;SDS011;10233;50.814;6.590;2023-05-07T04:47:47;3.67;;;2.57;;
20144;SDS011;10233;50.814;6.590;2023-05-07T04:48:48;3.30;;;2.40;;
20144;SDS011;10233;50.814;6.590;2023-05-07T04:49:49;4.18;;;2.55;;
20144;SDS011;10233;50.814;6.590;2023-05-07T04:50:49;3.40;;;2.43;;
20144;SDS011;10233;50.814;6.590;2023-05-07T04:51:51;3.08;;;2.38;;
20144;SDS011;10233;50.814;6.590;2023-05-07T04:52:55;2.72;;;2.20;;
20144;SDS011;10233;50.814;6.590;2023-05-07T04:53:57;2.80;;;2.45;;
20144;SDS011;10233;50.814;6.590;2023-05-07T04:54:59;4.57;;;2.40;;
20144;SDS011;10233;50.814;6.590;2023-05-07T04:56:01;4.15;;;2.40;;
20144;SDS011;10233;50.814;6.590;2023-05-07T04:57:08;3.92;;;2.65;;
20144;SDS011;10233;50.814;6.590;2023-05-07T04:58:09;2.72;;;2.15;;
20144;SDS011;10233;50.814;6.590;2023-05-07T04:59:12;3.15;;;2.30;;
20144;SDS011;10233;50.814;6.590;2023-05-07T05:00:12;2.85;;;2.33;;
20144;SDS011;10233;50.814;6.590;2023-05-07T05:01:16;3.17;;;2.35;;
20144;SDS011;10233;50.814;6.590;2023-05-07T05:02:17;3.60;;;2.33;;
20144;SDS011;10233;50.814;6.590;2023-05-07T05:03:18;3.20;;;2.50;;
20144;SDS011;10233;50.814;6.590;2023-05-07T05:04:19;4.03;;;2.55;;
20144;SDS011;10233;50.814;6.590;2023-05-07T05:05:20;3.47;;;2.45;;
20144;SDS011;10233;50.814;6.590;2023-05-07T05:06:23;2.95;;;2.53;;
20144;SDS011;10233;50.814;6.590;2023-05-07T05:07:24;2.95;;;2.50;;
20144;SDS011;10233;50.814;6.590;2023-05-07T05:08:25;4.78;;;2.38;;
20144;SDS011;10233;50.814;6.590;2023-05-07T05:09:26;3.60;;;2.57;;
20144;SDS011;10233;50.814;6.590;2023-05-07T05:10:27;4.13;;;2.45;;
20144;SDS011;10233;50.814;6.590;2023-05-07T05:11:29;3.58;;;2.50;;
20144;SDS011;10233;50.814;6.590;2023-05-07T05:12:29;3.40;;;2.00;;
20144;SDS011;10233;50.814;6.590;2023-05-07T05:13:32;3.72;;;2.28;;
20144;SDS011;10233;50.814;6.590;2023-05-07T05:14:34;2.70;;;2.40;;
20144;SDS011;10233;50.814;6.590;2023-05-07T05:15:35;4.00;;;2.40;;
20144;SDS011;10233;50.814;6.590;2023-05-07T05:16:36;3.00;;;2.30;;
20144;SDS011;10233;50.814;6.590;2023-05-07T05:17:37;4.05;;;2.38;;
20144;SDS011;10233;50.814;6.590;2023-05-07T05:18:39;2.88;;;2.22;;
20144;SDS011;10233;50.814;6.590;2023-05-07T05:19:41;4.70;;;2.40;;
20144;SDS011;10233;50.814;6.590;2023-05-07T05:20:42;3.20;;;2.30;;
20144;SDS011;10233;50.814;6.590;2023-05-07T05:21:45;3.05;;;2.33;;
20144;SDS011;10233;50.814;6.590;2023-05-07T05:22:46;3.22;;;2.42;;
20144;SDS011;10233;50.814;6.590;2023-05-07T05:23:47;2.63;;;2.30;;
20144;SDS011;10233;50.814;6.590;2023-05-07T05:24:52;2.75;;;2.33;;
20144;SDS011;10233;50.814;6.590;2023-05-07T05:25:56;4.07;;;2.30;;
20144;SDS011;10233;50.814;6.590;2023-05-07T05:26:59;3.83;;;2.40;;
20144;SDS011;10233;50.814;6.590;2023-05-07T05:28:02;2.90;;;2.10;;
20144;SDS011;10233;50.814;6.590;2023-05-07T05:29:04;4.60;;;2.45;;
20144;SDS011;10233;50.814;6.590;2023-05-07T05:30:06;2.33;;;1.92;;
20144;SDS011;10233;50.814;6.590;2023-05-07T05:31:08;2.85;;;2.50;;
20144;SDS011;10233;50.814;6.590;2023-05-07T05:32:10;4.10;;;2.40;;
20144;SDS011;10233;50.814;6.590;2023-05-07T05:33:11;3.03;;;2.20;;
20144;SDS011;10233;50.814;6.590;2023-05-07T05:34:12;4.30;;;2.25;;
20144;SDS011;10233;50.814;6.590;2023-05-07T05:35:13;3.30;;;2.13;;
20144;SDS011;10233;50.814;6.590;2023-05-07T05:36:15;3.40;;;2.40;;
20144;SDS011;10233;50.814;6.590;2023-05-07T05:37:18;5.15;;;2.60;;
20144;SDS011;10233;50.814;6.590;2023-05-07T05:38:19;2.80;;;2.22;;
20144;SDS011;10233;50.814;6.590;2023-05-07T05:39:21;5.78;;;2.30;;
20144;SDS011;10233;50.814;6.590;2023-05-07T05:40:23;4.07;;;2.40;;
20144;SDS011;10233;50.814;6.590;2023-05-07T05:41:24;3.47;;;2.40;;
20144;SDS011;10233;50.814;6.590;2023-05-07T05:42:25;2.95;;;2.40;;
20144;SDS011;10233;50.814;6.590;2023-05-07T05:43:26;2.50;;;2.13;;
20144;SDS011;10233;50.814;6.590;2023-05-07T05:44:26;3.20;;;2.30;;
20144;SDS011;10233;50.814;6.590;2023-05-07T05:45:27;3.83;;;2.28;;
20144;SDS011;10233;50.814;6.590;2023-05-07T05:46:27;3.73;;;2.20;;
20144;SDS011;10233;50.814;6.590;2023-05-07T05:47:29;3.90;;;2.47;;
20144;SDS011;10233;50.814;6.590;2023-05-07T05:48:30;2.92;;;2.35;;
20144;SDS011;10233;50.814;6.590;2023-05-07T05:49:32;2.55;;;2.20;;
20144;SDS011;10233;50.814;6.590;2023-05-07T05:50:33;4.25;;;2.20;;
20144;SDS011;10233;50.814;6.590;2023-05-07T05:51:36;2.33;;;1.90;;
20144;SDS011;10233;50.814;6.590;2023-05-07T05:52:37;2.00;;;1.73;;
20144;SDS011;10233;50.814;6.590;2023-05-07T05:53:38;3.30;;;2.28;;
20144;SDS011;10233;50.814;6.590;2023-05-07T05:54:40;5.40;;;2.03;;
20144;SDS011;10233;50.814;6.590;2023-05-07T05:55:41;3.90;;;2.28;;
20144;SDS011;10233;50.814;6.590;2023-05-07T05:56:42;3.00;;;2.20;;
20144;SDS011;10233;50.814;6.590;2023-05-07T05:57:43;2.35;;;2.10;;
20144;SDS011;10233;50.814;6.590;2023-05-07T05:58:44;3.78;;;2.30;;
20144;SDS011;10233;50.814;6.590;2023-05-07T05:59:44;2.70;;;2.20;;
20144;SDS011;10233;50.814;6.590;2023-05-07T06:00:47;2.58;;;2.10;;
20144;SDS011;10233;50.814;6.590;2023-05-07T06:01:49;4.18;;;2.47;;
20144;SDS011;10233;50.814;6.590;2023-05-07T06:02:50;3.30;;;2.22;;
20144;SDS011;10233;50.814;6.590;2023-05-07T06:03:56;2.95;;;1.92;;
20144;SDS011;10233;50.814;6.590;2023-05-07T06:04:57;2.87;;;2.27;;
20144;SDS011;10233;50.814;6.590;2023-05-07T06:05:57;2.30;;;2.10;;
20144;SDS011;10233;50.814;6.590;2023-05-07T06:07:00;3.40;;;2.17;;
20144;SDS011;10233;50.814;6.590;2023-05-07T06:08:00;3.90;;;2.10;;
20144;SDS011;10233;50.814;6.590;2023-05-07T06:09:05;2.20;;;2.00;;
20144;SDS011;10233;50.814;6.590;2023-05-07T06:10:11;2.30;;;2.00;;
20144;SDS011;10233;50.814;6.590;2023-05-07T06:11:12;2.90;;;1.97;;
20144;SDS011;10233;50.814;6.590;2023-05-07T06:12:15;2.78;;;2.03;;
20144;SDS011;10233;50.814;6.590;2023-05-07T06:13:16;2.25;;;1.95;;
20144;SDS011;10233;50.814;6.590;2023-05-07T06:14:17;3.00;;;2.05;;